Time;durP1;ratioP1;P1;durP2;ratioP2;P2;SDS_P1;SDS_P2;PMS_P1;PMS_P2;Temp;Humidity;BMP_temperature;BMP_pressure;BME280_temperature;BME280_humidity;BME280_pressure;Samples;Min_cycle;Max_cycle;Signal;HPM_P1;HPM_P2
2023/01/25 00:00:44;;;;;;;11.75;7.50;;;7.50;99.90;;;;;;4922546;29;20520;-92
2023/01/25 00:03:11;;;;;;;11.13;6.85;;;7.70;99.90;;;;;;4923648;29;20565;-90
2023/01/25 00:05:37;;;;;;;8.88;6.60;;;7.90;99.90;;;;;;4940590;29;20027;-92
2023/01/25 00:08:08;;;;;;;9.13;6.55;;;8.10;99.90;;;;;;4923424;29;20032;-93
2023/01/25 00:10:35;;;;;;;10.18;6.70;;;8.10;99.90;;;;;;4922915;29;20071;-92
2023/01/25 00:13:02;;;;;;;10.07;6.22;;;8.20;99.90;;;;;;4923158;29;20032;-93
2023/01/25 00:15:28;;;;;;;10.02;6.30;;;8.20;99.90;;;;;;4920722;29;20024;-92
2023/01/25 00:17:55;;;;;;;7.22;6.32;;;8.30;99.90;;;;;;4922246;29;20035;-92
2023/01/25 00:20:29;;;;;;;9.90;6.57;;;8.20;99.90;;;;;;4922118;29;20020;-95
2023/01/25 00:23:01;;;;;;;8.70;6.43;;;8.30;99.90;;;;;;4939755;29;20044;-95
2023/01/25 00:25:30;;;;;;;8.20;5.90;;;8.30;99.90;;;;;;4924138;29;20066;-94
2023/01/25 00:28:00;;;;;;;6.45;5.75;;;8.30;99.90;;;;;;4938414;29;20028;-93
2023/01/25 00:30:26;;;;;;;7.05;5.65;;;8.50;99.90;;;;;;4937694;29;20054;-92
2023/01/25 00:33:02;;;;;;;5.75;5.13;;;8.50;99.90;;;;;;4922048;29;20035;-92
2023/01/25 00:35:33;;;;;;;8.23;5.22;;;8.50;99.90;;;;;;4921984;29;20024;-93
2023/01/25 00:38:02;;;;;;;6.05;4.80;;;8.60;99.90;;;;;;4937575;29;20052;-94
2023/01/25 00:40:29;;;;;;;7.25;4.60;;;8.60;99.90;;;;;;4921847;29;20039;-94
2023/01/25 00:42:59;;;;;;;4.95;4.50;;;8.70;99.90;;;;;;4921794;29;20405;-92
2023/01/25 00:45:26;;;;;;;5.32;4.50;;;8.70;99.90;;;;;;4937095;29;20032;-92
2023/01/25 00:47:56;;;;;;;5.53;5.03;;;8.90;99.90;;;;;;4921674;29;20024;-93
2023/01/25 00:50:23;;;;;;;4.63;4.32;;;9.00;99.90;;;;;;4922774;29;20170;-93
2023/01/25 00:52:49;;;;;;;6.10;4.38;;;9.00;99.90;;;;;;4921634;29;20019;-93
2023/01/25 00:55:16;;;;;;;4.80;4.50;;;9.00;99.90;;;;;;4936298;29;20405;-92
2023/01/25 00:57:43;;;;;;;5.00;4.70;;;9.10;99.90;;;;;;4922768;29;20027;-93
2023/01/25 01:00:10;;;;;;;5.40;4.90;;;9.20;99.90;;;;;;4928850;29;20034;-94
2023/01/25 01:02:38;;;;;;;5.13;4.68;;;9.20;99.90;;;;;;4959148;28;20041;-94
2023/01/25 01:05:05;;;;;;;9.23;5.03;;;9.20;99.90;;;;;;4972691;28;20142;-93
2023/01/25 01:07:32;;;;;;;6.75;4.80;;;9.30;99.90;;;;;;4972405;28;20481;-93
2023/01/25 01:09:59;;;;;;;5.20;4.70;;;9.30;99.90;;;;;;4972557;28;20054;-93
2023/01/25 01:12:25;;;;;;;8.90;4.90;;;9.30;99.90;;;;;;4972251;28;20035;-92
2023/01/25 01:14:52;;;;;;;10.13;5.40;;;9.30;99.90;;;;;;4972473;28;20027;-93
2023/01/25 01:17:19;;;;;;;5.95;5.25;;;9.30;99.90;;;;;;4972516;28;20110;-93
2023/01/25 01:19:47;;;;;;;5.47;4.80;;;9.30;99.90;;;;;;4971839;28;20031;-92
2023/01/25 01:22:15;;;;;;;6.00;4.88;;;9.30;99.90;;;;;;4971631;28;20086;-92
2023/01/25 01:24:41;;;;;;;7.45;5.40;;;9.30;99.90;;;;;;4971772;28;20054;-94
2023/01/25 01:27:08;;;;;;;5.63;5.10;;;9.30;99.90;;;;;;4971594;28;20031;-94
2023/01/25 01:29:35;;;;;;;6.38;5.53;;;9.30;99.90;;;;;;4971954;28;20031;-93
2023/01/25 01:32:02;;;;;;;7.00;5.05;;;9.30;99.90;;;;;;4971556;28;20050;-93
2023/01/25 01:34:29;;;;;;;7.38;5.32;;;9.30;99.90;;;;;;4971813;28;20114;-92
2023/01/25 01:36:55;;;;;;;9.75;5.50;;;9.30;99.90;;;;;;4971423;28;20067;-95
2023/01/25 01:39:23;;;;;;;13.07;6.10;;;9.30;99.90;;;;;;4972169;28;20038;-94
2023/01/25 01:41:49;;;;;;;6.13;5.40;;;9.40;99.90;;;;;;4971796;28;20400;-92
2023/01/25 01:44:21;;;;;;;7.05;5.65;;;9.30;99.90;;;;;;4974098;28;20023;-92
2023/01/25 01:46:58;;;;;;;6.88;5.45;;;9.30;99.90;;;;;;4982575;28;20031;-93
2023/01/25 01:49:31;;;;;;;6.93;5.55;;;9.30;99.90;;;;;;4972182;28;20042;-92
2023/01/25 01:52:11;;;;;;;8.13;5.72;;;9.40;99.90;;;;;;4971339;28;20443;-92
2023/01/25 01:54:49;;;;;;;11.02;6.10;;;9.40;99.90;;;;;;4971930;28;20385;-94
2023/01/25 01:57:29;;;;;;;7.68;6.22;;;9.40;99.90;;;;;;4972103;28;20035;-93
2023/01/25 02:00:06;;;;;;;10.77;6.63;;;9.40;99.90;;;;;;4971976;28;20119;-94
2023/01/25 02:02:47;;;;;;;7.40;6.70;;;9.40;99.90;;;;;;4970211;28;20043;-92
2023/01/25 02:05:39;;;;;;;8.52;6.47;;;9.40;99.90;;;;;;4972933;28;20036;-93
2023/01/25 02:08:11;;;;;;;10.02;6.68;;;9.30;99.90;;;;;;4961496;29;20475;-92
2023/01/25 02:10:40;;;;;;;10.55;7.03;;;9.40;99.90;;;;;;4977648;28;20042;-93
2023/01/25 02:13:07;;;;;;;7.28;6.10;;;9.40;99.90;;;;;;4977602;28;20050;-93
2023/01/25 02:15:48;;;;;;;7.15;5.65;;;9.40;99.90;;;;;;4977369;28;20235;-94
2023/01/25 02:18:16;;;;;;;13.98;6.97;;;9.40;99.90;;;;;;4977564;28;20042;-92
2023/01/25 02:20:50;;;;;;;8.05;7.07;;;9.40;99.90;;;;;;4977632;28;20480;-92
2023/01/25 02:23:20;;;;;;;10.57;6.60;;;9.40;99.90;;;;;;4977490;28;20039;-92
2023/01/25 02:25:47;;;;;;;9.85;6.65;;;9.40;99.90;;;;;;4977488;28;20122;-94
2023/01/25 02:28:25;;;;;;;13.18;7.22;;;9.40;99.90;;;;;;4977620;28;20036;-92
2023/01/25 02:30:55;;;;;;;9.23;6.45;;;9.40;99.90;;;;;;4977855;28;20035;-93
2023/01/25 02:33:26;;;;;;;12.60;6.72;;;9.40;99.90;;;;;;4977533;28;20028;-93
2023/01/25 02:36:29;;;;;;;9.38;7.35;;;9.40;99.90;;;;;;4977738;28;20056;-92
2023/01/25 02:39:09;;;;;;;11.30;7.00;;;9.40;99.90;;;;;;4977830;28;20106;-92
2023/01/25 02:41:42;;;;;;;10.07;6.70;;;9.40;99.90;;;;;;4977510;28;20402;-93
2023/01/25 02:44:16;;;;;;;9.73;6.72;;;9.40;99.90;;;;;;4977455;28;20444;-94
2023/01/25 02:47:01;;;;;;;;;;;9.50;99.90;;;;;;4978102;28;20057;-92
2023/01/25 02:49:28;;;;;;;;;;;9.50;99.90;;;;;;4961798;28;19917;-92
2023/01/25 02:51:56;;;;;;;10.10;7.07;;;9.50;99.90;;;;;;4961250;29;19910;-92
2023/01/25 02:54:25;;;;;;;9.70;6.93;;;9.50;99.90;;;;;;4977298;28;20558;-95
2023/01/25 02:56:56;;;;;;;9.55;6.68;;;9.50;99.90;;;;;;4977426;28;20034;-93
2023/01/25 02:59:26;;;;;;;7.93;7.17;;;9.50;99.90;;;;;;4977127;28;20031;-93
2023/01/25 03:01:57;;;;;;;8.77;6.55;;;9.40;99.90;;;;;;4965453;28;20501;-93
2023/01/25 03:04:24;;;;;;;10.77;6.95;;;9.50;99.90;;;;;;4958028;28;20063;-96
2023/01/25 03:06:51;;;;;;;10.32;7.60;;;9.40;99.90;;;;;;4958432;29;20035;-94
2023/01/25 03:09:18;;;;;;;7.57;6.55;;;9.40;99.90;;;;;;4958127;28;20031;-92
2023/01/25 03:11:51;;;;;;;9.88;6.57;;;9.40;99.90;;;;;;4957695;29;20082;-93
2023/01/25 03:14:20;;;;;;;12.98;7.05;;;9.50;99.90;;;;;;4939854;29;20040;-93
2023/01/25 03:16:47;;;;;;;9.50;7.40;;;9.50;99.90;;;;;;4958094;28;20039;-94
2023/01/25 03:19:15;;;;;;;9.45;6.85;;;9.40;99.90;;;;;;4954287;28;20110;-93
2023/01/25 03:21:43;;;;;;;10.65;7.28;;;9.40;99.90;;;;;;4955123;29;20036;-93
2023/01/25 03:24:13;;;;;;;10.88;7.22;;;9.50;99.90;;;;;;4956448;29;20036;-94
2023/01/25 03:30:02;;;;;;;11.13;7.25;;;9.50;99.90;;;;;;4984638;28;20033;-92
2023/01/25 03:32:38;;;;;;;9.75;7.07;;;9.50;99.90;;;;;;4975121;28;20037;-94
2023/01/25 03:35:12;;;;;;;9.80;6.78;;;9.50;99.90;;;;;;4957652;28;20453;-92
2023/01/25 03:37:39;;;;;;;9.52;7.00;;;9.60;99.90;;;;;;4973619;28;20530;-93
2023/01/25 03:40:07;;;;;;;10.98;6.55;;;9.50;99.90;;;;;;4957993;28;20031;-93
2023/01/25 03:42:34;;;;;;;9.65;6.63;;;9.60;99.90;;;;;;4957577;28;20067;-94
2023/01/25 03:45:02;;;;;;;8.48;6.57;;;9.60;99.90;;;;;;4957467;28;20029;-92
2023/01/25 03:47:29;;;;;;;11.52;6.90;;;9.50;99.90;;;;;;4973732;28;20066;-92
2023/01/25 03:49:56;;;;;;;9.20;6.40;;;9.60;99.90;;;;;;4957261;28;20078;-92
2023/01/25 03:52:44;;;;;;;14.18;7.38;;;9.60;99.90;;;;;;4957286;28;20035;-94
2023/01/25 03:55:15;;;;;;;12.18;6.72;;;9.60;99.90;;;;;;4957202;29;20270;-94
2023/01/25 03:57:47;;;;;;;13.60;8.05;;;9.60;99.90;;;;;;4973299;28;20038;-93
2023/01/25 04:00:15;;;;;;;11.27;7.10;;;9.60;99.90;;;;;;4973496;28;20038;-93
2023/01/25 04:02:46;;;;;;;10.80;6.97;;;9.60;99.90;;;;;;4957142;28;20118;-94
2023/01/25 04:05:17;;;;;;;15.32;7.45;;;9.60;99.90;;;;;;4972856;28;20485;-94
2023/01/25 04:07:45;;;;;;;9.55;7.13;;;9.60;99.90;;;;;;4973595;28;20062;-94
2023/01/25 04:10:13;;;;;;;12.60;7.60;;;9.50;99.90;;;;;;4975874;28;20043;-92
2023/01/25 04:12:47;;;;;;;12.85;7.22;;;9.50;99.90;;;;;;4959759;28;20099;-94
2023/01/25 04:15:14;;;;;;;14.88;8.27;;;9.60;99.90;;;;;;4959607;28;20046;-94
2023/01/25 04:17:41;;;;;;;12.32;8.02;;;9.60;99.90;;;;;;4959373;28;20477;-93
2023/01/25 04:20:17;;;;;;;10.85;7.75;;;9.60;99.90;;;;;;4975075;28;20035;-95
2023/01/25 04:22:45;;;;;;;11.18;7.70;;;9.50;99.90;;;;;;4975585;28;20519;-93
2023/01/25 04:25:14;;;;;;;10.30;7.15;;;9.50;99.90;;;;;;4975595;28;20031;-92
2023/01/25 04:27:49;;;;;;;13.45;6.75;;;9.40;99.90;;;;;;4974916;28;20042;-94
2023/01/25 04:30:33;;;;;;;8.90;6.50;;;9.40;99.90;;;;;;4976326;28;20046;-93
2023/01/25 04:33:05;;;;;;;8.35;6.68;;;9.30;99.90;;;;;;4976980;28;20038;-94
2023/01/25 04:35:38;;;;;;;12.45;7.70;;;9.20;99.90;;;;;;4978666;28;20488;-94
2023/01/25 04:38:20;;;;;;;12.05;6.97;;;9.20;99.90;;;;;;4977297;28;20062;-94
2023/01/25 04:40:54;;;;;;;9.50;6.97;;;9.10;99.90;;;;;;4958913;29;20049;-93
2023/01/25 04:43:24;;;;;;;8.02;6.18;;;9.10;99.90;;;;;;4957023;29;20043;-93
2023/01/25 04:45:56;;;;;;;12.52;6.57;;;9.20;99.90;;;;;;4956290;29;20031;-93
2023/01/25 04:48:30;;;;;;;9.57;6.68;;;9.20;99.90;;;;;;4955543;29;20030;-95
2023/01/25 04:51:01;;;;;;;8.75;6.20;;;9.20;99.90;;;;;;4956082;29;20023;-93
2023/01/25 04:53:28;;;;;;;13.20;7.10;;;9.20;99.90;;;;;;4956065;29;20027;-93
2023/01/25 04:55:59;;;;;;;9.52;6.30;;;9.10;99.90;;;;;;4955479;29;20027;-93
2023/01/25 04:58:27;;;;;;;12.48;6.55;;;9.10;99.90;;;;;;4955977;29;20037;-93
2023/01/25 05:01:01;;;;;;;12.40;6.18;;;9.00;99.90;;;;;;4956947;29;20023;-93
2023/01/25 05:03:28;;;;;;;10.93;6.53;;;9.10;99.90;;;;;;4956204;29;20031;-93
2023/01/25 05:05:56;;;;;;;13.73;6.38;;;9.20;99.90;;;;;;4956902;29;20065;-94
2023/01/25 05:08:25;;;;;;;11.88;7.10;;;9.20;99.90;;;;;;4956663;29;20444;-92
2023/01/25 05:10:55;;;;;;;12.40;6.95;;;9.20;99.90;;;;;;4961656;29;20031;-91
2023/01/25 05:13:29;;;;;;;10.05;6.22;;;9.20;99.90;;;;;;4955774;28;20035;-95
2023/01/25 05:16:09;;;;;;;5.57;4.15;;;9.10;99.90;;;;;;4939975;29;20401;-92
2023/01/25 05:18:36;;;;;;;8.18;4.65;;;9.50;99.90;;;;;;4955742;29;20027;-93
2023/01/25 05:21:56;;;;;;;6.63;4.30;;;9.60;99.90;;;;;;4955788;29;20035;-94
2023/01/25 05:23:54;;;;;;;5.70;3.85;;;9.60;99.90;;;;;;4936728;29;20050;-92
2023/01/25 05:29:09;;;;;;;7.03;5.60;;;9.60;99.90;;;;;;4921312;29;20035;-92
2023/01/25 05:31:47;;;;;;;7.93;5.50;;;9.60;99.90;;;;;;4922393;29;20114;-93
2023/01/25 05:34:14;;;;;;;7.85;4.90;;;9.50;99.90;;;;;;4920830;29;20440;-93
2023/01/25 05:36:55;;;;;;;9.73;5.10;;;9.50;99.90;;;;;;4921393;29;20067;-94
2023/01/25 05:39:23;;;;;;;6.88;5.32;;;9.40;99.90;;;;;;4937372;29;20510;-92
2023/01/25 05:45:04;;;;;;;6.82;5.60;;;9.40;99.90;;;;;;5060579;23;20055;-94
2023/01/25 05:47:33;;;;;;;10.77;6.60;;;9.40;99.90;;;;;;4943943;28;20027;-92
2023/01/25 05:50:00;;;;;;;9.25;8.07;;;9.40;99.90;;;;;;4943338;28;20034;-93
2023/01/25 05:52:40;;;;;;;15.32;8.90;;;9.40;99.90;;;;;;4944621;28;20488;-93
2023/01/25 05:55:17;;;;;;;;;;;;;;;;;;;;;
2023/01/25 05:57:54;;;;;;;11.13;10.10;;;9.30;99.90;;;;;;4959926;28;20125;-91
2023/01/25 06:00:21;;;;;;;12.85;11.10;;;9.30;99.90;;;;;;4942496;28;20325;-93
2023/01/25 06:02:48;;;;;;;11.75;10.90;;;9.30;99.90;;;;;;4942513;28;20039;-91
2023/01/25 06:05:20;;;;;;;13.02;11.80;;;9.30;99.90;;;;;;4943032;28;20058;-91
2023/01/25 06:07:46;;;;;;;13.75;12.27;;;9.30;99.90;;;;;;4942498;28;20118;-92
2023/01/25 06:10:14;;;;;;;12.43;11.20;;;9.20;99.90;;;;;;4942530;28;20397;-91
2023/01/25 06:12:42;;;;;;;19.08;12.50;;;9.20;99.90;;;;;;4942801;28;20114;-92
2023/01/25 06:15:09;;;;;;;26.23;12.45;;;9.20;99.90;;;;;;4919350;29;20039;-93
2023/01/25 06:17:35;;;;;;;12.70;11.50;;;9.20;99.90;;;;;;4919643;29;20050;-91
2023/01/25 06:20:22;;;;;;;12.32;11.30;;;9.20;99.90;;;;;;4884322;29;20064;-93
2023/01/25 06:23:16;;;;;;;17.20;11.65;;;9.30;99.90;;;;;;4848332;29;20045;-95
2023/01/25 06:25:43;;;;;;;13.00;11.90;;;9.20;99.90;;;;;;4860202;29;20048;-92
2023/01/25 06:28:09;;;;;;;13.43;12.25;;;9.20;99.90;;;;;;4860136;29;20488;-93
2023/01/25 06:30:36;;;;;;;12.63;11.60;;;9.30;99.90;;;;;;4860279;29;20526;-93
2023/01/25 06:33:03;;;;;;;13.05;11.75;;;9.30;99.90;;;;;;4860430;29;20041;-93
2023/01/25 06:35:33;;;;;;;14.45;12.93;;;9.30;99.90;;;;;;4859884;29;20038;-93
2023/01/25 06:38:00;;;;;;;13.07;11.95;;;9.30;99.90;;;;;;4860365;29;20045;-93
2023/01/25 06:40:33;;;;;;;15.00;12.00;;;9.30;99.90;;;;;;4860052;29;20046;-94
2023/01/25 06:43:10;;;;;;;14.20;12.88;;;9.20;99.90;;;;;;4862497;29;20547;-92
2023/01/25 06:45:37;;;;;;;13.30;12.10;;;9.30;99.90;;;;;;4868090;29;20049;-93
2023/01/25 06:48:04;;;;;;;13.25;12.05;;;9.30;99.90;;;;;;4863771;29;20037;-93
2023/01/25 06:50:31;;;;;;;12.93;11.75;;;9.30;99.90;;;;;;4848738;29;20040;-93
2023/01/25 06:52:57;;;;;;;13.57;12.20;;;9.30;99.90;;;;;;4867023;29;20040;-91
2023/01/25 06:55:24;;;;;;;14.35;12.45;;;9.30;99.90;;;;;;4866626;29;20036;-94
2023/01/25 06:57:54;;;;;;;14.35;12.88;;;9.30;99.90;;;;;;4866602;29;20037;-94
2023/01/25 07:00:21;;;;;;;17.35;13.38;;;9.30;99.90;;;;;;4908044;29;20508;-93
2023/01/25 07:02:47;;;;;;;14.80;13.10;;;9.30;99.90;;;;;;4942832;29;20035;-94
2023/01/25 07:05:14;;;;;;;17.08;13.65;;;9.40;99.90;;;;;;4942549;29;20114;-94
2023/01/25 07:07:45;;;;;;;16.90;13.43;;;9.40;99.90;;;;;;4943871;29;20035;-93
2023/01/25 07:10:12;;;;;;;17.67;14.18;;;9.40;99.90;;;;;;4942182;29;20031;-95
2023/01/25 07:12:39;;;;;;;16.80;13.80;;;9.40;99.90;;;;;;4942849;29;20370;-94
2023/01/25 07:15:05;;;;;;;22.63;15.25;;;9.60;99.90;;;;;;4942531;29;20496;-95
2023/01/25 07:17:32;;;;;;;16.77;14.73;;;9.60;99.90;;;;;;4943142;29;20034;-92
2023/01/25 07:19:59;;;;;;;17.58;15.18;;;9.60;99.90;;;;;;4942225;28;20062;-93
2023/01/25 07:22:26;;;;;;;24.38;15.43;;;9.60;99.90;;;;;;4942380;28;20521;-92
2023/01/25 07:24:56;;;;;;;12.60;11.30;;;9.60;99.90;;;;;;4958479;29;20042;-94
2023/01/25 07:55:24;;;;;;;27.52;12.43;;;10.40;99.90;;;;;;5227486;23;20061;-93
2023/01/25 07:57:54;;;;;;;34.08;12.43;;;10.50;99.90;;;;;;4944485;29;20038;-94
2023/01/25 08:00:24;;;;;;;22.95;12.00;;;10.50;99.90;;;;;;4958031;29;20032;-92
2023/01/25 08:02:52;;;;;;;24.15;11.90;;;10.60;99.90;;;;;;4957335;29;20408;-94
2023/01/25 08:05:19;;;;;;;21.90;12.43;;;10.60;99.90;;;;;;4941565;29;20377;-93
2023/01/25 08:07:47;;;;;;;17.15;12.05;;;10.60;99.90;;;;;;4953161;29;20038;-94
2023/01/25 08:10:14;;;;;;;20.02;11.40;;;10.60;99.90;;;;;;4941433;29;20091;-94
2023/01/25 08:12:45;;;;;;;20.45;11.45;;;10.60;99.90;;;;;;4941354;29;20567;-92
2023/01/25 08:15:13;;;;;;;20.08;11.73;;;10.70;99.90;;;;;;4956949;29;20035;-95
2023/01/25 08:17:39;;;;;;;19.80;13.23;;;10.70;99.90;;;;;;4941028;29;20031;-93
2023/01/25 08:20:07;;;;;;;23.98;13.18;;;10.80;99.90;;;;;;4957166;29;20023;-93
2023/01/25 08:22:34;;;;;;;16.85;12.68;;;11.00;99.90;;;;;;4940835;29;20043;-92
2023/01/25 08:25:02;;;;;;;26.40;13.68;;;11.10;99.90;;;;;;4956738;29;20039;-92
2023/01/25 08:27:32;;;;;;;17.90;12.30;;;11.20;99.90;;;;;;4940940;29;20461;-94
2023/01/25 08:29:58;;;;;;;21.60;12.90;;;11.30;99.90;;;;;;4940647;29;20027;-92
2023/01/25 08:32:25;;;;;;;24.05;13.15;;;11.30;99.90;;;;;;4940708;29;20031;-93
2023/01/25 08:34:51;;;;;;;22.77;12.52;;;11.20;99.90;;;;;;4956520;29;20035;-94
2023/01/25 08:37:19;;;;;;;25.95;13.23;;;11.20;99.90;;;;;;4940744;29;20059;-94
2023/01/25 08:39:47;;;;;;;26.98;13.60;;;11.20;99.90;;;;;;4942525;29;20027;-95
2023/01/25 08:42:13;;;;;;;24.83;13.98;;;11.30;99.90;;;;;;4956849;29;20039;-92
2023/01/25 08:44:40;;;;;;;24.45;14.90;;;11.30;99.90;;;;;;4937746;29;20020;-91
2023/01/25 08:47:07;;;;;;;28.30;16.05;;;11.30;99.90;;;;;;4906829;29;20059;-93
2023/01/25 08:49:34;;;;;;;22.27;15.70;;;11.30;99.90;;;;;;4901628;29;20032;-94
2023/01/25 08:52:00;;;;;;;20.60;15.45;;;11.30;99.90;;;;;;4905658;29;20494;-93
2023/01/25 08:54:27;;;;;;;28.10;15.88;;;11.30;99.90;;;;;;4906320;29;20038;-95
2023/01/25 08:56:54;;;;;;;39.30;21.33;;;11.30;99.90;;;;;;4905625;29;20387;-93
2023/01/25 08:59:21;;;;;;;23.70;16.15;;;11.30;99.90;;;;;;4905579;29;20039;-93
2023/01/25 09:01:48;;;;;;;25.48;15.57;;;11.30;99.90;;;;;;4921583;29;20490;-91
2023/01/25 09:04:14;;;;;;;19.33;16.25;;;11.30;99.90;;;;;;4905469;29;20039;-93
2023/01/25 09:06:41;;;;;;;25.20;15.68;;;11.40;99.90;;;;;;4905594;29;20038;-94
2023/01/25 09:09:08;;;;;;;19.13;15.40;;;11.50;99.90;;;;;;4920892;29;20054;-93
2023/01/25 09:11:36;;;;;;;22.35;15.05;;;11.60;99.90;;;;;;4921180;29;20028;-93
2023/01/25 09:14:04;;;;;;;18.63;13.90;;;11.80;99.90;;;;;;4939899;29;20122;-93
2023/01/25 09:16:31;;;;;;;16.50;14.63;;;11.80;99.90;;;;;;4955081;28;20516;-93
2023/01/25 09:19:01;;;;;;;21.48;14.80;;;11.90;99.90;;;;;;4939852;29;20041;-91
2023/01/25 09:21:28;;;;;;;24.15;14.57;;;11.90;99.90;;;;;;4942006;29;20039;-93
2023/01/25 09:23:56;;;;;;;30.35;17.30;;;11.90;99.90;;;;;;4940022;29;20035;-91
2023/01/25 09:26:22;;;;;;;27.15;16.30;;;11.90;99.90;;;;;;4956037;29;20110;-90
2023/01/25 09:28:53;;;;;;;24.80;18.10;;;11.90;99.90;;;;;;4940201;29;20043;-93
2023/01/25 09:31:20;;;;;;;29.70;18.10;;;11.80;99.90;;;;;;4955607;29;20075;-95
2023/01/25 09:33:59;;;;;;;26.02;17.95;;;11.80;99.90;;;;;;4956224;29;20023;-93
2023/01/25 09:36:26;;;;;;;26.40;18.80;;;11.70;99.90;;;;;;4940084;29;20475;-93
2023/01/25 09:38:55;;;;;;;26.73;18.92;;;11.80;99.90;;;;;;4939635;29;20051;-93
2023/01/25 09:42:04;;;;;;;22.63;19.75;;;11.80;99.90;;;;;;4939411;29;20039;-94
2023/01/25 09:44:47;;;;;;;22.80;18.05;;;11.80;99.90;;;;;;4923774;29;20089;-94
2023/01/25 09:47:43;;;;;;;24.90;17.63;;;11.70;99.90;;;;;;4939584;29;20122;-92
2023/01/25 09:50:38;;;;;;;21.17;17.05;;;11.70;99.90;;;;;;4939905;29;20126;-92
2023/01/25 09:53:32;;;;;;;25.13;17.77;;;11.60;99.90;;;;;;4939902;29;20118;-91
2023/01/25 09:56:25;;;;;;;18.27;16.33;;;11.60;99.90;;;;;;4966410;28;20049;-93
2023/01/25 09:59:02;;;;;;;26.30;17.52;;;11.50;99.90;;;;;;4974860;28;20038;-93
2023/01/25 10:01:50;;;;;;;25.20;16.85;;;11.60;99.90;;;;;;4990533;28;20461;-91
2023/01/25 10:04:39;;;;;;;26.23;17.55;;;11.60;99.90;;;;;;4974637;28;20489;-94
2023/01/25 10:07:35;;;;;;;23.98;15.43;;;11.50;99.90;;;;;;4958700;28;20030;-94
2023/01/25 10:10:13;;;;;;;25.65;15.70;;;11.60;99.90;;;;;;4950952;28;20109;-91
2023/01/25 10:12:40;;;;;;;25.73;14.73;;;11.70;99.90;;;;;;4975068;28;20039;-91
2023/01/25 10:15:39;;;;;;;24.58;13.60;;;11.80;99.90;;;;;;4974330;28;20035;-92
2023/01/25 10:18:24;;;;;;;22.20;12.32;;;12.00;99.90;;;;;;4974406;28;20038;-92
2023/01/25 10:21:22;;;;;;;23.15;12.18;;;12.10;99.90;;;;;;4990391;28;20037;-93
2023/01/25 10:24:30;;;;;;;19.25;12.00;;;12.10;99.90;;;;;;4935206;29;20544;-92
2023/01/25 10:27:11;;;;;;;25.10;13.32;;;12.10;99.90;;;;;;4919399;29;20047;-91
2023/01/25 10:29:38;;;;;;;21.00;12.20;;;12.10;99.90;;;;;;4923277;29;20028;-92
2023/01/25 10:32:23;;;;;;;20.67;13.13;;;12.00;99.90;;;;;;4922933;29;20478;-91
2023/01/25 10:34:53;;;;;;;27.13;12.27;;;12.00;99.90;;;;;;4907424;29;20494;-93
2023/01/25 10:37:32;;;;;;;29.40;21.45;;;11.70;99.90;;;;;;4923179;29;20032;-92
2023/01/25 10:40:17;;;;;;;34.10;20.73;;;11.60;99.90;;;;;;4923039;29;20035;-93
2023/01/25 10:42:54;;;;;;;27.65;20.25;;;11.40;99.90;;;;;;4907988;29;20129;-92
2023/01/25 10:45:21;;;;;;;22.75;9.10;;;11.20;99.90;;;;;;4923053;29;20511;-92
2023/01/25 10:48:05;;;;;;;21.42;7.90;;;10.90;99.90;;;;;;4907877;29;20036;-95
2023/01/25 10:50:47;;;;;;;3.72;0.90;;;10.50;99.90;;;;;;4909167;29;20048;-93
2023/01/25 10:53:30;;;;;;;1.55;1.00;;;10.50;99.90;;;;;;4924145;29;20043;-93
2023/01/25 10:56:10;;;;;;;14.25;1.45;;;10.50;99.90;;;;;;4918003;29;20104;-94
2023/01/25 10:58:47;;;;;;;0.00;0.00;;;10.50;99.90;;;;;;4919691;29;20087;-94
2023/01/25 11:01:29;;;;;;;0.00;0.00;;;10.50;99.90;;;;;;4933486;29;20035;-93
2023/01/25 11:03:57;;;;;;;0.10;0.10;;;10.60;99.90;;;;;;4958187;29;20482;-93
2023/01/25 11:06:32;;;;;;;1.20;1.10;;;10.70;99.90;;;;;;4958070;29;20031;-92
2023/01/25 11:08:59;;;;;;;0.32;0.32;;;10.80;99.90;;;;;;4942246;29;20062;-91
2023/01/25 11:11:36;;;;;;;0.00;0.00;;;10.90;99.90;;;;;;4926396;29;20019;-91
2023/01/25 11:14:16;;;;;;;43.92;2.60;;;10.90;99.90;;;;;;4941928;29;20027;-92
2023/01/25 11:16:49;;;;;;;0.47;0.47;;;11.00;99.90;;;;;;4942183;29;20027;-92
2023/01/25 11:19:33;;;;;;;0.15;0.15;;;11.00;99.90;;;;;;4912091;29;20040;-92
2023/01/25 11:22:17;;;;;;;0.10;0.10;;;11.00;99.90;;;;;;4923167;29;20110;-92
2023/01/25 11:24:44;;;;;;;0.00;0.00;;;11.10;99.90;;;;;;4922864;29;20036;-92
2023/01/25 11:27:26;;;;;;;0.65;0.57;;;11.20;99.90;;;;;;4907426;29;20050;-92
2023/01/25 11:30:05;;;;;;;0.25;0.25;;;11.20;99.90;;;;;;4922980;29;20033;-92
2023/01/25 11:32:32;;;;;;;0.00;0.00;;;11.30;99.90;;;;;;4922934;29;20036;-92
2023/01/25 11:34:59;;;;;;;0.10;0.10;;;11.40;99.90;;;;;;4907114;29;20032;-93
2023/01/25 11:38:11;;;;;;;0.00;0.00;;;11.40;99.90;;;;;;4907363;29;20028;-94
2023/01/25 11:41:00;;;;;;;0.00;0.00;;;11.50;99.90;;;;;;4922297;29;20038;-92
2023/01/25 11:43:57;;;;;;;0.00;0.00;;;11.50;99.90;;;;;;4907324;29;20043;-91
2023/01/25 11:46:24;;;;;;;0.00;0.00;;;11.50;99.90;;;;;;4922836;29;20389;-93
2023/01/25 11:49:14;;;;;;;0.00;0.00;;;11.50;99.90;;;;;;4922906;29;20548;-91
2023/01/25 11:52:00;;;;;;;0.55;0.40;;;11.60;99.90;;;;;;4907004;29;20492;-92
2023/01/25 11:55:06;;;;;;;0.17;0.17;;;11.60;99.90;;;;;;4906808;29;20131;-92
2023/01/25 11:57:44;;;;;;;0.00;0.00;;;11.70;99.90;;;;;;4885650;29;20044;-93
2023/01/25 12:00:35;;;;;;;0.00;0.00;;;11.70;99.90;;;;;;4906762;29;20557;-91
2023/01/25 12:03:04;;;;;;;0.63;0.63;;;11.80;99.90;;;;;;4924456;29;20142;-91
2023/01/25 12:06:11;;;;;;;0.00;0.00;;;11.80;99.90;;;;;;4922423;29;20024;-92
2023/01/25 12:08:57;;;;;;;0.85;0.85;;;11.70;99.90;;;;;;4923055;29;20031;-93
2023/01/25 12:11:45;;;;;;;0.00;0.00;;;11.70;99.90;;;;;;4923254;29;20036;-92
2023/01/25 12:14:27;;;;;;;0.10;0.10;;;11.60;99.90;;;;;;4922655;29;20083;-90
2023/01/25 12:17:31;;;;;;;0.00;0.00;;;11.60;99.90;;;;;;4906752;29;20035;-93
2023/01/25 12:20:01;;;;;;;0.30;0.20;;;11.60;99.90;;;;;;4936527;29;20028;-92
2023/01/25 12:22:36;;;;;;;0.75;0.75;;;11.60;99.90;;;;;;4924612;29;20099;-94
2023/01/25 12:25:20;;;;;;;0.10;0.10;;;11.50;99.90;;;;;;4921950;29;20484;-94
2023/01/25 12:28:10;;;;;;;0.35;0.35;;;11.50;99.90;;;;;;4906274;29;20036;-92
2023/01/25 12:31:25;;;;;;;0.00;0.00;;;11.60;99.90;;;;;;4912239;29;20039;-92
2023/01/25 12:33:58;;;;;;;0.10;0.10;;;11.60;99.90;;;;;;4847038;29;20053;-92
2023/01/25 12:36:30;;;;;;;0.13;0.13;;;11.60;99.90;;;;;;4847131;29;20040;-92
2023/01/25 12:39:29;;;;;;;2.33;2.22;;;11.60;99.90;;;;;;4862018;29;20112;-94
2023/01/25 12:42:16;;;;;;;0.47;0.47;;;11.60;99.90;;;;;;4861687;29;20066;-93
2023/01/25 12:45:10;;;;;;;0.00;0.00;;;11.60;99.90;;;;;;4862513;29;20038;-93
2023/01/25 12:47:56;;;;;;;0.43;0.43;;;11.70;99.90;;;;;;4861865;29;20037;-91
2023/01/25 12:51:01;;;;;;;0.08;0.08;;;11.80;99.90;;;;;;4830866;29;20049;-91
2023/01/25 12:53:46;;;;;;;0.55;0.55;;;11.60;99.90;;;;;;4821547;29;20041;-95
2023/01/25 12:56:31;;;;;;;0.20;0.20;;;11.20;99.90;;;;;;4818779;29;20531;-91
2023/01/25 12:59:24;;;;;;;3.60;0.90;;;11.10;99.90;;;;;;4842659;29;20034;-92
2023/01/25 13:02:01;;;;;;;0.00;0.00;;;11.00;99.90;;;;;;4806452;29;20137;-92
2023/01/25 13:05:06;;;;;;;0.00;0.00;;;11.00;99.90;;;;;;4806728;29;20154;-93
2023/01/25 13:07:53;;;;;;;0.00;0.00;;;11.10;99.90;;;;;;4752492;30;20043;-93
2023/01/25 13:10:30;;;;;;;0.00;0.00;;;11.20;99.90;;;;;;4762247;30;20043;-91
2023/01/25 13:13:09;;;;;;;0.00;0.00;;;11.30;99.90;;;;;;4785840;30;20047;-91
2023/01/25 13:15:43;;;;;;;0.22;0.22;;;11.40;99.90;;;;;;4741046;30;20569;-92
2023/01/25 13:18:28;;;;;;;0.35;0.35;;;11.30;99.90;;;;;;4791078;29;20039;-92
2023/01/25 13:21:02;;;;;;;0.10;0.10;;;11.30;99.90;;;;;;4773140;30;20051;-91
2023/01/25 13:24:16;;;;;;;0.10;0.10;;;11.30;99.90;;;;;;4774136;30;20509;-92
2023/01/25 13:26:53;;;;;;;0.32;0.32;;;11.30;99.90;;;;;;4780919;29;20038;-94
2023/01/25 13:29:38;;;;;;;0.00;0.00;;;11.40;99.90;;;;;;4809635;29;20042;-94
2023/01/25 13:32:11;;;;;;;0.00;0.00;;;11.20;99.90;;;;;;4809507;29;20039;-93
2023/01/25 13:34:41;;;;;;;0.30;0.00;;;10.80;99.90;;;;;;4794034;29;20474;-92
2023/01/25 13:37:29;;;;;;;0.25;0.25;;;10.70;99.90;;;;;;4793789;29;20493;-92
2023/01/25 13:40:02;;;;;;;0.00;0.00;;;10.60;99.90;;;;;;4864355;29;20127;-93
2023/01/25 13:42:33;;;;;;;0.20;0.20;;;10.40;99.90;;;;;;4849141;29;20064;-93
2023/01/25 13:45:18;;;;;;;0.20;0.20;;;10.50;99.90;;;;;;4939743;29;20031;-93
2023/01/25 13:48:13;;;;;;;0.10;0.10;;;10.30;99.90;;;;;;4939735;29;20527;-94
2023/01/25 13:50:47;;;;;;;;;;;10.40;99.90;;;;;;4939883;29;20063;-94
2023/01/25 13:53:14;;;;;;;0.10;0.10;;;10.50;99.90;;;;;;4955926;28;19910;-94
2023/01/25 13:55:45;;;;;;;0.00;0.00;;;10.70;99.90;;;;;;4939229;29;20031;-93
2023/01/25 13:58:29;;;;;;;0.00;0.00;;;10.90;99.90;;;;;;4939502;29;20031;-95